PWSweather.com
Personal Weather Stations
Station Observations
IPUGLIAA10
Acquaviva Delle FontiIT 70021

Acquaviva Delle FontiIT 70021

Lat: 40.8906215, Lon: 16.8456484

Elevation: 1020

Station Type: Davis Vantage Vue

http://www.meteoacquaviva.it

Latest ConditionsUpdated 7:30:05 PM GMT+01:01 Monday, Aug 20, 2018
Currently Today's Max Today's Min Today's Average
Temperature 76.7°F24.8°C 84.4°F29.1°C 70.8°F21.6°C 77.4°F25.2°C
Dew Point 70.4°F21.3°C 71.7°F22.1°C 65.1°F18.4°C 68.9°F20.5°C
Winds 3.5 mph NE5.6 kmh NE 8.1 mph -13.0 kmh - - 3.1 mph 5.0 kmh
Wind Gusts 4.6 mph7.4 kmh 12.7 mph20.4 kmh - -
Humidity 81% 88% 58% 76%
Pressure 29.93 in1013.5 mb 29.95 in1014.2 mb 29.89 in1012.2 mb -
Hour Temp Dew Point Humidity Winds Wind Gusts Pressure Precip Precip Rate Daily Precip Total
07:30 PM 76.7°F24.8°C 70.4°F21.3°C 81% 3.5 mph NE5.6 kmh NE 4.6 mph7.4 kmh 29.93 in1013.5 mb - 0.00 in0.0 mm 0.00 in0.0 mm
07:20 PM 76.8°F24.9°C 70.5°F21.4°C 81% 2.3 mph NNE3.7 kmh NNE 3.5 mph5.6 kmh 29.92 in1013.2 mb - 0.00 in0.0 mm 0.00 in0.0 mm
07:10 PM 77.0°F25.0°C 70.7°F21.5°C 81% 2.3 mph NNE3.7 kmh NNE 3.5 mph5.6 kmh 29.92 in1013.2 mb - 0.00 in0.0 mm 0.00 in0.0 mm
07:00 PM 77.1°F25.1°C 70.8°F21.6°C 81% 1.2 mph NE1.9 kmh NE 3.5 mph5.6 kmh 29.91 in1012.9 mb - 0.00 in0.0 mm 0.00 in0.0 mm
06:50 PM 77.3°F25.2°C 71.0°F21.7°C 81% 3.5 mph NNE5.6 kmh NNE 3.5 mph5.6 kmh 29.91 in1012.9 mb - 0.00 in0.0 mm 0.00 in0.0 mm
06:40 PM 77.6°F25.3°C 70.9°F21.6°C 80% 2.3 mph NNE3.7 kmh NNE 3.5 mph5.6 kmh 29.90 in1012.5 mb - 0.00 in0.0 mm 0.00 in0.0 mm
06:30 PM 77.8°F25.4°C 71.1°F21.7°C 80% 3.5 mph NE5.6 kmh NE 4.6 mph7.4 kmh 29.90 in1012.5 mb - 0.00 in0.0 mm 0.00 in0.0 mm
06:20 PM 78.0°F25.6°C 71.0°F21.7°C 79% 4.6 mph NNE7.4 kmh NNE 5.8 mph9.3 kmh 29.90 in1012.5 mb - 0.00 in0.0 mm 0.00 in0.0 mm
06:10 PM 78.3°F25.7°C 71.2°F21.8°C 79% 3.5 mph NNE5.6 kmh NNE 5.8 mph9.3 kmh 29.90 in1012.5 mb - 0.00 in0.0 mm 0.00 in0.0 mm
06:00 PM 78.4°F25.8°C 71.4°F21.9°C 79% 3.5 mph NNE5.6 kmh NNE 3.5 mph5.6 kmh 29.90 in1012.5 mb - 0.00 in0.0 mm 0.00 in0.0 mm
05:50 PM 78.9°F26.1°C 71.5°F21.9°C 78% 4.6 mph NNE7.4 kmh NNE 8.1 mph13.0 kmh 29.90 in1012.5 mb - 0.00 in0.0 mm 0.00 in0.0 mm
05:40 PM 79.2°F26.2°C 71.0°F21.7°C 76% 2.3 mph NNE3.7 kmh NNE 3.5 mph5.6 kmh 29.90 in1012.5 mb - 0.00 in0.0 mm 0.00 in0.0 mm
05:30 PM 79.1°F26.2°C 71.3°F21.8°C 77% 2.3 mph NNE3.7 kmh NNE 4.6 mph7.4 kmh 29.90 in1012.5 mb - 0.00 in0.0 mm 0.00 in0.0 mm
05:20 PM 79.4°F26.3°C 71.2°F21.8°C 76% 1.2 mph NNE1.9 kmh NNE 3.5 mph5.6 kmh 29.91 in1012.9 mb - 0.00 in0.0 mm 0.00 in0.0 mm
05:10 PM 79.7°F26.5°C 71.1°F21.7°C 75% 3.5 mph NE5.6 kmh NE 8.1 mph13.0 kmh 29.90 in1012.5 mb - 0.00 in0.0 mm 0.00 in0.0 mm
05:00 PM 80.2°F26.8°C 69.5°F20.8°C 70% 4.6 mph NNE7.4 kmh NNE 6.9 mph11.1 kmh 29.91 in1012.9 mb - 0.00 in0.0 mm 0.00 in0.0 mm
04:50 PM 80.1°F26.7°C 69.0°F20.6°C 69% 3.5 mph NNE5.6 kmh NNE 4.6 mph7.4 kmh 29.91 in1012.9 mb - 0.00 in0.0 mm 0.00 in0.0 mm
04:40 PM 80.3°F26.8°C 69.6°F20.9°C 70% 4.6 mph NNE7.4 kmh NNE 6.9 mph11.1 kmh 29.90 in1012.5 mb - 0.00 in0.0 mm 0.00 in0.0 mm
04:30 PM 80.8°F27.1°C 70.1°F21.2°C 70% 2.3 mph NE3.7 kmh NE 3.5 mph5.6 kmh 29.90 in1012.5 mb - 0.00 in0.0 mm 0.00 in0.0 mm
04:20 PM 81.1°F27.3°C 69.9°F21.1°C 69% 4.6 mph NNE7.4 kmh NNE 4.6 mph7.4 kmh 29.90 in1012.5 mb - 0.00 in0.0 mm 0.00 in0.0 mm
04:10 PM 81.3°F27.4°C 69.3°F20.7°C 67% 3.5 mph NNE5.6 kmh NNE 5.8 mph9.3 kmh 29.90 in1012.5 mb - 0.00 in0.0 mm 0.00 in0.0 mm
04:00 PM 81.6°F27.6°C 69.1°F20.6°C 66% 4.6 mph NNE7.4 kmh NNE 5.8 mph9.3 kmh 29.90 in1012.5 mb - 0.00 in0.0 mm 0.00 in0.0 mm
03:50 PM 81.9°F27.7°C 68.5°F20.3°C 64% 4.6 mph NE7.4 kmh NE 8.1 mph13.0 kmh 29.90 in1012.5 mb - 0.00 in0.0 mm 0.00 in0.0 mm
03:40 PM 82.4°F28.0°C 67.6°F19.8°C 61% 4.6 mph NNE7.4 kmh NNE 9.2 mph14.8 kmh 29.90 in1012.5 mb - 0.00 in0.0 mm 0.00 in0.0 mm
03:30 PM 82.3°F27.9°C 67.0°F19.4°C 60% 2.3 mph NNE3.7 kmh NNE 5.8 mph9.3 kmh 29.90 in1012.5 mb - 0.00 in0.0 mm 0.00 in0.0 mm
03:20 PM 82.4°F28.0°C 67.1°F19.5°C 60% 5.8 mph NNE9.3 kmh NNE 9.2 mph14.8 kmh 29.89 in1012.2 mb - 0.00 in0.0 mm 0.00 in0.0 mm
03:10 PM 82.7°F28.2°C 67.4°F19.7°C 60% 3.5 mph NE5.6 kmh NE 6.9 mph11.1 kmh 29.89 in1012.2 mb - 0.00 in0.0 mm 0.00 in0.0 mm
03:00 PM 82.8°F28.2°C 67.0°F19.4°C 59% 6.9 mph NE11.1 kmh NE 8.1 mph13.0 kmh 29.89 in1012.2 mb - 0.00 in0.0 mm 0.00 in0.0 mm
02:50 PM 82.8°F28.2°C 67.0°F19.4°C 59% 4.6 mph NNE7.4 kmh NNE 5.8 mph9.3 kmh 29.89 in1012.2 mb - 0.00 in0.0 mm 0.00 in0.0 mm
02:40 PM 82.8°F28.2°C 68.4°F20.2°C 62% 3.5 mph NE5.6 kmh NE 11.5 mph18.5 kmh 29.89 in1012.2 mb - 0.00 in0.0 mm 0.00 in0.0 mm
02:30 PM 83.4°F28.6°C 68.6°F20.3°C 61% 6.9 mph NNE11.1 kmh NNE 10.4 mph16.7 kmh 29.89 in1012.2 mb - 0.00 in0.0 mm 0.00 in0.0 mm
02:20 PM 83.9°F28.8°C 69.0°F20.6°C 61% 5.8 mph NE9.3 kmh NE 11.5 mph18.5 kmh 29.89 in1012.2 mb - 0.00 in0.0 mm 0.00 in0.0 mm
02:10 PM 83.8°F28.8°C 68.9°F20.5°C 61% 5.8 mph NNE9.3 kmh NNE 11.5 mph18.5 kmh 29.89 in1012.2 mb - 0.00 in0.0 mm 0.00 in0.0 mm
02:00 PM 84.2°F29.0°C 67.8°F19.9°C 58% 5.8 mph NNE9.3 kmh NNE 6.9 mph11.1 kmh 29.89 in1012.2 mb - 0.00 in0.0 mm 0.00 in0.0 mm
01:51 PM 84.3°F29.1°C 69.9°F21.1°C 62% 8.1 mph NNE13.0 kmh NNE 12.7 mph20.4 kmh 29.89 in1012.2 mb - 0.00 in0.0 mm 0.00 in0.0 mm
01:40 PM 84.0°F28.9°C 69.6°F20.9°C 62% 4.6 mph NNE7.4 kmh NNE 5.8 mph9.3 kmh 29.89 in1012.2 mb - 0.00 in0.0 mm 0.00 in0.0 mm
01:30 PM 84.4°F29.1°C 70.0°F21.1°C 62% 4.6 mph NNE7.4 kmh NNE 11.5 mph18.5 kmh 29.89 in1012.2 mb - 0.00 in0.0 mm 0.00 in0.0 mm
01:20 PM 83.8°F28.8°C 69.4°F20.8°C 62% 4.6 mph NNE7.4 kmh NNE 9.2 mph14.8 kmh 29.89 in1012.2 mb - 0.00 in0.0 mm 0.00 in0.0 mm
01:10 PM 83.8°F28.8°C 69.9°F21.1°C 63% 6.9 mph NE11.1 kmh NE 12.7 mph20.4 kmh 29.90 in1012.5 mb - 0.00 in0.0 mm 0.00 in0.0 mm
01:00 PM 83.4°F28.6°C 70.4°F21.3°C 65% 6.9 mph NNE11.1 kmh NNE 9.2 mph14.8 kmh 29.91 in1012.9 mb - 0.00 in0.0 mm 0.00 in0.0 mm
12:50 PM 83.9°F28.8°C 70.4°F21.3°C 64% 5.8 mph NE9.3 kmh NE 11.5 mph18.5 kmh 29.91 in1012.9 mb - 0.00 in0.0 mm 0.00 in0.0 mm
12:40 PM 83.7°F28.7°C 70.7°F21.5°C 65% 8.1 mph NNE13.0 kmh NNE 12.7 mph20.4 kmh 29.91 in1012.9 mb - 0.00 in0.0 mm 0.00 in0.0 mm
12:30 PM 83.2°F28.4°C 70.6°F21.4°C 66% 4.6 mph NNE7.4 kmh NNE 12.7 mph20.4 kmh 29.91 in1012.9 mb - 0.00 in0.0 mm 0.00 in0.0 mm
12:20 PM 82.5°F28.1°C 70.5°F21.4°C 67% 4.6 mph NE7.4 kmh NE 9.2 mph14.8 kmh 29.92 in1013.2 mb - 0.00 in0.0 mm 0.00 in0.0 mm
12:10 PM 83.2°F28.4°C 70.7°F21.5°C 66% 8.1 mph NE13.0 kmh NE 11.5 mph18.5 kmh 29.92 in1013.2 mb - 0.00 in0.0 mm 0.00 in0.0 mm
12:00 PM 82.8°F28.2°C 70.3°F21.3°C 66% 5.8 mph NNE9.3 kmh NNE 11.5 mph18.5 kmh 29.92 in1013.2 mb - 0.00 in0.0 mm 0.00 in0.0 mm
11:50 AM 82.9°F28.3°C 70.8°F21.6°C 67% 4.6 mph NE7.4 kmh NE 5.8 mph9.3 kmh 29.93 in1013.5 mb - 0.00 in0.0 mm 0.00 in0.0 mm
11:40 AM 83.1°F28.4°C 70.6°F21.4°C 66% 2.3 mph NNE3.7 kmh NNE 6.9 mph11.1 kmh 29.93 in1013.5 mb - 0.00 in0.0 mm 0.00 in0.0 mm
11:30 AM 83.4°F28.6°C 70.8°F21.6°C 66% 5.8 mph NNE9.3 kmh NNE 11.5 mph18.5 kmh 29.93 in1013.5 mb - 0.00 in0.0 mm 0.00 in0.0 mm
11:20 AM 82.1°F27.8°C 70.5°F21.4°C 68% 4.6 mph NNE7.4 kmh NNE 8.1 mph13.0 kmh 29.94 in1013.9 mb - 0.00 in0.0 mm 0.00 in0.0 mm
11:10 AM 81.9°F27.7°C 71.2°F21.8°C 70% 4.6 mph NNE7.4 kmh NNE 6.9 mph11.1 kmh 29.94 in1013.9 mb - 0.00 in0.0 mm 0.00 in0.0 mm
11:00 AM 82.0°F27.8°C 70.4°F21.3°C 68% 5.8 mph NNE9.3 kmh NNE 5.8 mph9.3 kmh 29.94 in1013.9 mb - 0.00 in0.0 mm 0.00 in0.0 mm
10:50 AM 81.9°F27.7°C 70.7°F21.5°C 69% 5.8 mph NNE9.3 kmh NNE 8.1 mph13.0 kmh 29.93 in1013.5 mb - 0.00 in0.0 mm 0.00 in0.0 mm
10:40 AM 80.5°F26.9°C 70.2°F21.2°C 71% 5.8 mph NNE9.3 kmh NNE 8.1 mph13.0 kmh 29.93 in1013.5 mb - 0.00 in0.0 mm 0.00 in0.0 mm
10:30 AM 80.6°F27.0°C 70.7°F21.5°C 72% 3.5 mph NE5.6 kmh NE 8.1 mph13.0 kmh 29.94 in1013.9 mb - 0.00 in0.0 mm 0.00 in0.0 mm
10:20 AM 80.4°F26.9°C 70.6°F21.4°C 72% 3.5 mph NE5.6 kmh NE 9.2 mph14.8 kmh 29.94 in1013.9 mb - 0.00 in0.0 mm 0.00 in0.0 mm
10:10 AM 80.6°F27.0°C 70.7°F21.5°C 72% 3.5 mph NE5.6 kmh NE 11.5 mph18.5 kmh 29.93 in1013.5 mb - 0.00 in0.0 mm 0.00 in0.0 mm
10:00 AM 79.7°F26.5°C 70.7°F21.5°C 74% 3.5 mph N5.6 kmh N 8.1 mph13.0 kmh 29.93 in1013.5 mb - 0.00 in0.0 mm 0.00 in0.0 mm
09:50 AM 79.8°F26.6°C 71.2°F21.8°C 75% 4.6 mph NE7.4 kmh NE 6.9 mph11.1 kmh 29.94 in1013.9 mb - 0.00 in0.0 mm 0.00 in0.0 mm
09:40 AM 79.4°F26.3°C 71.5°F21.9°C 77% 3.5 mph NE5.6 kmh NE 6.9 mph11.1 kmh 29.94 in1013.9 mb - 0.00 in0.0 mm 0.00 in0.0 mm
09:30 AM 80.1°F26.7°C 71.5°F21.9°C 75% 5.8 mph NNE9.3 kmh NNE 11.5 mph18.5 kmh 29.93 in1013.5 mb - 0.00 in0.0 mm 0.00 in0.0 mm
09:20 AM 79.3°F26.3°C 71.4°F21.9°C 77% 5.8 mph NNE9.3 kmh NNE 9.2 mph14.8 kmh 29.93 in1013.5 mb - 0.00 in0.0 mm 0.00 in0.0 mm
09:10 AM 78.9°F26.1°C 71.4°F21.9°C 78% 3.5 mph NNE5.6 kmh NNE 3.5 mph5.6 kmh 29.93 in1013.5 mb - 0.00 in0.0 mm 0.00 in0.0 mm
09:00 AM 78.6°F25.9°C 71.5°F21.9°C 79% 2.3 mph NE3.7 kmh NE 4.6 mph7.4 kmh 29.93 in1013.5 mb - 0.00 in0.0 mm 0.00 in0.0 mm
08:50 AM 78.0°F25.6°C 71.3°F21.8°C 80% 6.9 mph NE11.1 kmh NE 10.4 mph16.7 kmh 29.93 in1013.5 mb - 0.00 in0.0 mm 0.00 in0.0 mm
08:40 AM 78.3°F25.7°C 71.2°F21.8°C 79% 4.6 mph NE7.4 kmh NE 11.5 mph18.5 kmh 29.93 in1013.5 mb - 0.00 in0.0 mm 0.00 in0.0 mm
08:30 AM 78.0°F25.6°C 71.7°F22.1°C 81% 3.5 mph NE5.6 kmh NE 5.8 mph9.3 kmh 29.93 in1013.5 mb - 0.00 in0.0 mm 0.00 in0.0 mm
08:20 AM 77.5°F25.3°C 71.2°F21.8°C 81% 6.9 mph NE11.1 kmh NE 11.5 mph18.5 kmh 29.93 in1013.5 mb - 0.00 in0.0 mm 0.00 in0.0 mm
08:10 AM 77.4°F25.2°C 71.5°F21.9°C 82% 3.5 mph NE5.6 kmh NE 5.8 mph9.3 kmh 29.93 in1013.5 mb - 0.00 in0.0 mm 0.00 in0.0 mm
08:00 AM 76.8°F24.9°C 71.6°F22.0°C 84% 5.8 mph NNE9.3 kmh NNE 9.2 mph14.8 kmh 29.93 in1013.5 mb - 0.00 in0.0 mm 0.00 in0.0 mm
07:40 AM 76.1°F24.5°C 71.3°F21.8°C 85% 2.3 mph NNE3.7 kmh NNE 4.6 mph7.4 kmh 29.93 in1013.5 mb - 0.00 in0.0 mm 0.00 in0.0 mm
07:30 AM 75.6°F24.2°C 70.8°F21.6°C 85% 3.5 mph NNE5.6 kmh NNE 9.2 mph14.8 kmh 29.93 in1013.5 mb - 0.00 in0.0 mm 0.00 in0.0 mm
07:20 AM 75.2°F24.0°C 70.7°F21.5°C 86% 2.3 mph NNE3.7 kmh NNE 3.5 mph5.6 kmh 29.93 in1013.5 mb - 0.00 in0.0 mm 0.00 in0.0 mm
07:10 AM 75.0°F23.9°C 70.2°F21.2°C 85% 2.3 mph NNE3.7 kmh NNE 4.6 mph7.4 kmh 29.93 in1013.5 mb - 0.00 in0.0 mm 0.00 in0.0 mm
07:00 AM 74.9°F23.8°C 70.1°F21.2°C 85% 2.3 mph NE3.7 kmh NE 5.8 mph9.3 kmh 29.92 in1013.2 mb - 0.00 in0.0 mm 0.00 in0.0 mm
06:50 AM 74.3°F23.5°C 69.5°F20.8°C 85% 1.2 mph NE1.9 kmh NE 3.5 mph5.6 kmh 29.92 in1013.2 mb - 0.00 in0.0 mm 0.00 in0.0 mm
06:40 AM 73.7°F23.2°C 69.2°F20.7°C 86% 1.2 mph NNE1.9 kmh NNE 2.3 mph3.7 kmh 29.92 in1013.2 mb - 0.00 in0.0 mm 0.00 in0.0 mm
06:30 AM 73.0°F22.8°C 68.6°F20.3°C 86% 1.2 mph N1.9 kmh N 2.3 mph3.7 kmh 29.92 in1013.2 mb - 0.00 in0.0 mm 0.00 in0.0 mm
06:20 AM 72.4°F22.4°C 67.9°F19.9°C 86% Calm Calm 2.3 mph3.7 kmh 29.92 in1013.2 mb - 0.00 in0.0 mm 0.00 in0.0 mm
06:10 AM 72.2°F22.3°C 67.8°F19.9°C 86% Calm Calm 1.2 mph1.9 kmh 29.92 in1013.2 mb - 0.00 in0.0 mm 0.00 in0.0 mm
06:00 AM 72.2°F22.3°C 67.4°F19.7°C 85% Calm Calm 1.2 mph1.9 kmh 29.92 in1013.2 mb - 0.00 in0.0 mm 0.00 in0.0 mm
05:50 AM 71.9°F22.2°C 67.5°F19.7°C 86% 2.3 mph NNW3.7 kmh NNW 3.5 mph5.6 kmh 29.92 in1013.2 mb - 0.00 in0.0 mm 0.00 in0.0 mm
05:40 AM 71.4°F21.9°C 67.3°F19.6°C 87% Calm Calm 1.2 mph1.9 kmh 29.92 in1013.2 mb - 0.00 in0.0 mm 0.00 in0.0 mm
05:30 AM 71.2°F21.8°C 67.1°F19.5°C 87% Calm Calm 2.3 mph3.7 kmh 29.91 in1012.9 mb - 0.00 in0.0 mm 0.00 in0.0 mm
05:20 AM 71.2°F21.8°C 67.1°F19.5°C 87% 1.2 mph NW1.9 kmh NW 3.5 mph5.6 kmh 29.91 in1012.9 mb - 0.00 in0.0 mm 0.00 in0.0 mm
05:10 AM 71.2°F21.8°C 67.1°F19.5°C 87% 1.2 mph NNW1.9 kmh NNW 1.2 mph1.9 kmh 29.91 in1012.9 mb - 0.00 in0.0 mm 0.00 in0.0 mm
05:00 AM 71.2°F21.8°C 67.5°F19.7°C 88% 1.2 mph NW1.9 kmh NW 2.3 mph3.7 kmh 29.91 in1012.9 mb - 0.00 in0.0 mm 0.00 in0.0 mm
04:50 AM 71.2°F21.8°C 67.5°F19.7°C 88% 2.3 mph NW3.7 kmh NW 5.8 mph9.3 kmh 29.91 in1012.9 mb - 0.00 in0.0 mm 0.00 in0.0 mm
04:40 AM 71.1°F21.7°C 67.4°F19.7°C 88% 1.2 mph NNW1.9 kmh NNW 3.5 mph5.6 kmh 29.91 in1012.9 mb - 0.00 in0.0 mm 0.00 in0.0 mm
04:30 AM 71.1°F21.7°C 67.4°F19.7°C 88% Calm Calm 1.2 mph1.9 kmh 29.91 in1012.9 mb - 0.00 in0.0 mm 0.00 in0.0 mm
04:20 AM 71.1°F21.7°C 67.4°F19.7°C 88% 1.2 mph WSW1.9 kmh WSW 3.5 mph5.6 kmh 29.92 in1013.2 mb - 0.00 in0.0 mm 0.00 in0.0 mm
04:10 AM 71.2°F21.8°C 67.4°F19.7°C 88% Calm Calm -- 29.92 in1013.2 mb - 0.00 in0.0 mm 0.00 in0.0 mm
04:00 AM 71.2°F21.8°C 67.5°F19.7°C 88% 1.2 mph SW1.9 kmh SW 2.3 mph3.7 kmh 29.92 in1013.2 mb - 0.00 in0.0 mm 0.00 in0.0 mm
03:30 AM 70.9°F21.6°C 66.8°F19.3°C 87% Calm Calm 3.5 mph5.6 kmh 29.92 in1013.2 mb - 0.00 in0.0 mm 0.00 in0.0 mm
03:20 AM 70.9°F21.6°C 66.5°F19.2°C 86% 1.2 mph NE1.9 kmh NE 3.5 mph5.6 kmh 29.92 in1013.2 mb - 0.00 in0.0 mm 0.00 in0.0 mm
03:10 AM 70.9°F21.6°C 66.2°F19.0°C 85% Calm Calm 1.2 mph1.9 kmh 29.92 in1013.2 mb - 0.00 in0.0 mm 0.00 in0.0 mm
03:00 AM 71.0°F21.7°C 66.3°F19.1°C 85% Calm Calm -- 29.93 in1013.5 mb - 0.00 in0.0 mm 0.00 in0.0 mm
02:50 AM 71.0°F21.7°C 65.6°F18.7°C 83% Calm Calm 1.2 mph1.9 kmh 29.92 in1013.2 mb - 0.00 in0.0 mm 0.00 in0.0 mm
02:40 AM 71.2°F21.8°C 65.8°F18.8°C 83% Calm Calm 1.2 mph1.9 kmh 29.93 in1013.5 mb - 0.00 in0.0 mm 0.00 in0.0 mm
02:30 AM 71.1°F21.7°C 65.7°F18.7°C 83% Calm Calm 1.2 mph1.9 kmh 29.93 in1013.5 mb - 0.00 in0.0 mm 0.00 in0.0 mm
02:20 AM 71.0°F21.7°C 65.6°F18.7°C 83% Calm Calm -- 29.93 in1013.5 mb - 0.00 in0.0 mm 0.00 in0.0 mm
02:10 AM 70.8°F21.6°C 65.4°F18.6°C 83% 1.2 mph WSW1.9 kmh WSW 2.3 mph3.7 kmh 29.93 in1013.5 mb - 0.00 in0.0 mm 0.00 in0.0 mm
02:00 AM 71.4°F21.9°C 65.2°F18.4°C 81% 2.3 mph SW3.7 kmh SW 3.5 mph5.6 kmh 29.93 in1013.5 mb - 0.00 in0.0 mm 0.00 in0.0 mm
01:50 AM 71.6°F22.0°C 65.4°F18.6°C 81% 2.3 mph NW3.7 kmh NW 4.6 mph7.4 kmh 29.93 in1013.5 mb - 0.00 in0.0 mm 0.00 in0.0 mm
01:40 AM 72.1°F22.3°C 65.6°F18.7°C 80% Calm Calm 3.5 mph5.6 kmh 29.93 in1013.5 mb - 0.00 in0.0 mm 0.00 in0.0 mm
01:30 AM 72.4°F22.4°C 65.5°F18.6°C 79% 2.3 mph NNW3.7 kmh NNW 4.6 mph7.4 kmh 29.93 in1013.5 mb - 0.00 in0.0 mm 0.00 in0.0 mm
01:20 AM 72.5°F22.5°C 65.6°F18.7°C 79% 1.2 mph NW1.9 kmh NW 3.5 mph5.6 kmh 29.93 in1013.5 mb - 0.00 in0.0 mm 0.00 in0.0 mm
01:10 AM 72.6°F22.6°C 65.7°F18.7°C 79% 1.2 mph WNW1.9 kmh WNW 3.5 mph5.6 kmh 29.93 in1013.5 mb - 0.00 in0.0 mm 0.00 in0.0 mm
01:00 AM 72.5°F22.5°C 65.2°F18.4°C 78% 2.3 mph NW3.7 kmh NW 4.6 mph7.4 kmh 29.93 in1013.5 mb - 0.00 in0.0 mm 0.00 in0.0 mm
12:50 AM 72.3°F22.4°C 65.1°F18.4°C 78% 1.2 mph NNW1.9 kmh NNW 3.5 mph5.6 kmh 29.94 in1013.9 mb - 0.00 in0.0 mm 0.00 in0.0 mm
12:40 AM 72.2°F22.3°C 65.3°F18.5°C 79% 1.2 mph NW1.9 kmh NW 3.5 mph5.6 kmh 29.94 in1013.9 mb - 0.00 in0.0 mm 0.00 in0.0 mm
12:30 AM 72.0°F22.2°C 65.5°F18.6°C 80% 1.2 mph NNW1.9 kmh NNW 1.2 mph1.9 kmh 29.94 in1013.9 mb - 0.00 in0.0 mm 0.00 in0.0 mm
12:20 AM 71.8°F22.1°C 65.3°F18.5°C 80% Calm Calm -- 29.94 in1013.9 mb - 0.00 in0.0 mm 0.00 in0.0 mm
12:10 AM 72.2°F22.3°C 65.3°F18.5°C 79% Calm Calm -- 29.94 in1013.9 mb - 0.00 in0.0 mm 0.00 in0.0 mm
12:00 AM 72.6°F22.6°C 65.7°F18.7°C 79% 1.2 mph W1.9 kmh W 2.3 mph3.7 kmh 29.95 in1014.2 mb - 0.00 in0.0 mm 0.00 in0.0 mm